CheckWX is a tool to help pilots better visualize weather data.  It is not intended as a substitute for an official pre-flight weather briefing.

21:05:15 UTC

KBPG METAR
Big Spring Mc Mahon-Wrinkle Airport
Big Spring, Texas, USA
Current

10 mins ago

KBPG 232055Z AUTO 27027G36KT 4SM SCT047 16/M12 A2998 RMK AO2 6//// T01611118
Observed
Feb-23 @ 20:55 UTC
Wind
  • 270° at 27 KTS
  • Gusting to 36 KTS
Visibility
4 SM
Flight Rules
MVFR
Cloud Levels
  • Scattered at 4,700' AGL
Temperature
16°C / 61°F
Dewpoint
-12°C / 10°F
Humidity
13%
Altimeter
29.98" Hg
Pressure
1015.22 hPa
Previous

30 mins ago

KBPG 232035Z AUTO 27028G35KT 3SM 16/M11 A2997 RMK AO2 SKY OBSCURED T01601115
Observed
Feb-23 @ 20:35 UTC
Wind
  • 270° at 28 KTS
  • Gusting to 35 KTS
Visibility
3 SM
Temperature
16°C / 61°F
Dewpoint
-12°C / 10°F
Humidity
13%
Altimeter
29.97" Hg
Pressure
1014.92 hPa
Previous

55 mins ago

KBPG 232010Z AUTO 27028G37KT 3SM 16/M12 A2997 RMK AO2 SKY OBSCURED T01571119
Observed
Feb-23 @ 20:10 UTC
Wind
  • 270° at 28 KTS
  • Gusting to 37 KTS
Visibility
3 SM
Temperature
16°C / 61°F
Dewpoint
-12°C / 10°F
Humidity
13%
Altimeter
29.97" Hg
Pressure
1014.92 hPa